createdAt,value
2023-02-18T00:01:48.110Z,326.98
2023-02-18T00:04:16.585Z,312.77
2023-02-18T00:06:47.025Z,467.83
2023-02-18T00:09:15.463Z,498.30
2023-02-18T00:11:43.640Z,399.27
2023-02-18T00:14:17.042Z,219.38
2023-02-18T00:16:46.522Z,181.75
2023-02-18T00:19:20.250Z,192.57
2023-02-18T00:21:49.229Z,327.17
2023-02-18T00:24:17.838Z,421.40
2023-02-18T00:26:46.701Z,367.17
2023-02-18T00:29:14.950Z,359.40
2023-02-18T00:31:43.501Z,409.48
2023-02-18T00:34:13.237Z,370.67
2023-02-18T00:36:42.017Z,390.50
2023-02-18T00:39:12.237Z,356.05
2023-02-18T00:41:41.743Z,315.65
2023-02-18T00:44:11.949Z,295.85
2023-02-18T00:46:41.012Z,268.38
2023-02-18T00:49:10.293Z,280.33
2023-02-18T00:51:38.654Z,265.23
2023-02-18T00:54:07.035Z,292.75
2023-02-18T00:56:35.854Z,257.38
2023-02-18T00:59:04.173Z,283.10
2023-02-18T01:01:32.903Z,258.70
2023-02-18T01:04:01.475Z,242.85
2023-02-18T01:06:29.993Z,249.90
2023-02-18T01:08:58.317Z,210.98
2023-02-18T01:11:26.964Z,196.13
2023-02-18T01:13:55.335Z,141.85
2023-02-18T01:16:24.697Z,101.00
2023-02-18T01:18:53.121Z,105.45
2023-02-18T01:21:21.482Z,119.80
2023-02-18T01:23:51.328Z,131.27
2023-02-18T01:26:19.914Z,124.13
2023-02-18T01:28:48.296Z,141.43
2023-02-18T01:31:18.611Z,133.75
2023-02-18T01:33:47.164Z,131.50
2023-02-18T01:36:15.591Z,156.80
2023-02-18T01:38:43.779Z,148.40
2023-02-18T01:41:12.434Z,149.88
2023-02-18T01:43:41.249Z,163.07
2023-02-18T01:46:22.266Z,174.38
2023-02-18T01:49:01.920Z,193.05
2023-02-18T01:51:34.851Z,202.82
2023-02-18T01:54:14.404Z,189.20
2023-02-18T01:56:52.543Z,230.85
2023-02-18T01:59:46.531Z,198.52
2023-02-18T02:02:20.136Z,216.25
2023-02-18T02:04:49.356Z,214.23
2023-02-18T02:07:20.432Z,225.98
2023-02-18T02:09:51.203Z,199.60
2023-02-18T02:12:48.609Z,232.18
2023-02-18T02:15:48.449Z,226.02
2023-02-18T02:18:38.804Z,213.13
2023-02-18T02:21:43.416Z,229.02
2023-02-18T02:24:12.813Z,220.85
2023-02-18T02:26:51.043Z,218.38
2023-02-18T02:29:40.938Z,246.85
2023-02-18T02:32:15.423Z,217.30
2023-02-18T02:35:10.134Z,218.65
2023-02-18T02:38:01.947Z,227.90
2023-02-18T02:41:13.072Z,206.45
2023-02-18T02:43:45.296Z,207.52
2023-02-18T02:46:41.337Z,208.70
2023-02-18T02:49:29.459Z,199.70
2023-02-18T02:52:43.532Z,199.98
2023-02-18T02:55:13.765Z,191.43
2023-02-18T02:57:52.424Z,172.57
2023-02-18T03:00:54.590Z,161.70
2023-02-18T03:03:36.754Z,160.73
2023-02-18T03:06:26.200Z,154.82
2023-02-18T03:09:29.426Z,156.50
2023-02-18T03:12:07.281Z,156.10
2023-02-18T03:14:57.784Z,132.73
2023-02-18T03:17:33.422Z,144.38
2023-02-18T03:20:17.206Z,139.50
2023-02-18T03:22:51.013Z,127.57
2023-02-18T03:25:21.683Z,133.70
2023-02-18T03:28:06.173Z,140.07
2023-02-18T03:30:47.205Z,120.88
2023-02-18T03:33:22.844Z,107.22
2023-02-18T03:35:53.002Z,101.70
2023-02-18T03:38:39.088Z,103.30
2023-02-18T03:41:07.816Z,99.47
2023-02-18T03:43:38.742Z,105.15
2023-02-18T03:46:07.434Z,93.05
2023-02-18T03:48:36.035Z,96.72
2023-02-18T03:51:04.455Z,101.13
2023-02-18T03:53:32.569Z,106.38
2023-02-18T03:56:00.993Z,108.70
2023-02-18T03:58:29.211Z,102.65
2023-02-18T04:00:57.668Z,100.57
2023-02-18T04:03:26.642Z,98.20
2023-02-18T04:05:55.093Z,99.13
2023-02-18T04:08:23.607Z,88.75
2023-02-18T04:10:52.327Z,96.50
2023-02-18T04:13:21.616Z,88.85
2023-02-18T04:15:53.394Z,84.50
2023-02-18T04:18:21.677Z,77.07
2023-02-18T04:20:50.017Z,72.65
2023-02-18T04:23:18.532Z,84.20
2023-02-18T04:25:47.354Z,86.43
2023-02-18T04:28:16.822Z,80.10
2023-02-18T04:30:47.228Z,106.50
2023-02-18T04:33:16.082Z,98.57
2023-02-18T04:35:44.459Z,88.53
2023-02-18T04:38:12.754Z,90.65
2023-02-18T04:40:41.131Z,94.57
2023-02-18T04:43:09.392Z,80.45
2023-02-18T04:45:37.627Z,71.82
2023-02-18T04:48:06.296Z,78.63
2023-02-18T04:50:34.719Z,77.78
2023-02-18T04:53:02.885Z,78.63
2023-02-18T04:55:31.132Z,79.88
2023-02-18T04:57:59.326Z,81.75
2023-02-18T05:00:27.722Z,99.82
2023-02-18T05:02:56.170Z,98.63
2023-02-18T05:05:24.395Z,102.93
2023-02-18T05:07:53.713Z,90.25
2023-02-18T05:10:22.070Z,112.35
2023-02-18T05:13:06.764Z,100.50
2023-02-18T05:15:38.446Z,110.72
2023-02-18T05:18:07.133Z,114.05
2023-02-18T05:20:38.902Z,100.95
2023-02-18T05:23:07.231Z,92.43
2023-02-18T05:25:38.424Z,90.82
2023-02-18T05:28:09.666Z,95.38
2023-02-18T05:30:37.918Z,91.13
2023-02-18T05:33:06.560Z,103.63
2023-02-18T05:35:34.853Z,93.90
2023-02-18T05:38:03.091Z,105.05
2023-02-18T05:40:31.759Z,102.07
2023-02-18T05:43:00.172Z,95.38
2023-02-18T05:45:28.381Z,80.32
2023-02-18T05:47:56.861Z,105.60
2023-02-18T05:50:26.893Z,97.63
2023-02-18T05:52:55.152Z,95.38
2023-02-18T05:55:23.676Z,120.88
2023-02-18T05:57:52.303Z,80.07
2023-02-18T06:00:30.208Z,97.55
2023-02-18T06:02:59.744Z,80.35
2023-02-18T06:05:31.186Z,81.32
2023-02-18T06:08:06.024Z,80.47
2023-02-18T06:10:43.618Z,99.18
2023-02-18T06:13:17.180Z,81.95
2023-02-18T06:15:45.772Z,78.20
2023-02-18T06:18:14.099Z,85.68
2023-02-18T06:20:42.368Z,77.72
2023-02-18T06:23:11.691Z,83.32
2023-02-18T06:25:43.371Z,80.18
2023-02-18T06:28:11.765Z,79.65
2023-02-18T06:30:39.982Z,72.85
2023-02-18T06:33:16.755Z,72.45
2023-02-18T06:36:09.351Z,67.90
2023-02-18T06:38:39.526Z,71.38
2023-02-18T06:41:08.771Z,69.10
2023-02-18T06:43:40.133Z,60.25
2023-02-18T06:46:14.033Z,66.67
2023-02-18T06:48:42.781Z,74.00
2023-02-18T06:51:11.100Z,82.63
2023-02-18T06:53:39.388Z,77.85
2023-02-18T06:56:08.105Z,103.63
2023-02-18T06:58:36.820Z,93.75
2023-02-18T07:01:05.843Z,124.43
2023-02-18T07:03:34.634Z,89.95
2023-02-18T07:06:02.945Z,84.35
2023-02-18T07:08:31.555Z,81.45
2023-02-18T07:11:00.254Z,78.35
2023-02-18T07:13:28.792Z,67.05
2023-02-18T07:15:57.133Z,65.32
2023-02-18T07:18:25.665Z,56.72
2023-02-18T07:20:53.894Z,73.82
2023-02-18T07:23:22.109Z,70.25
2023-02-18T07:25:53.400Z,74.95
2023-02-18T07:28:21.731Z,48.65
2023-02-18T07:30:50.196Z,74.07
2023-02-18T07:33:18.426Z,57.70
2023-02-18T07:35:46.636Z,62.72
2023-02-18T07:38:14.865Z,55.40
2023-02-18T07:40:45.756Z,69.43
2023-02-18T07:43:14.171Z,75.82
2023-02-18T07:45:42.503Z,67.82
2023-02-18T07:48:10.821Z,71.32
2023-02-18T07:50:43.882Z,90.57
2023-02-18T07:53:14.085Z,82.65
2023-02-18T07:55:42.385Z,74.22
2023-02-18T07:58:10.659Z,71.95
2023-02-18T08:00:39.365Z,75.03
2023-02-18T08:03:07.784Z,63.42
2023-02-18T08:05:35.977Z,82.82
2023-02-18T08:08:04.351Z,90.40
2023-02-18T08:10:32.732Z,91.43
2023-02-18T08:13:01.083Z,103.07
2023-02-18T08:15:29.323Z,106.82
2023-02-18T08:17:57.895Z,91.85
2023-02-18T08:20:26.662Z,73.07
2023-02-18T08:22:55.408Z,67.57
2023-02-18T08:25:29.319Z,57.78
2023-02-18T08:27:58.353Z,56.58
2023-02-18T08:30:27.815Z,69.43
2023-02-18T08:32:56.354Z,73.88
2023-02-18T08:35:24.960Z,72.55
2023-02-18T08:37:54.433Z,78.18
2023-02-18T08:40:23.123Z,64.05
2023-02-18T08:42:51.513Z,77.22
2023-02-18T08:45:19.915Z,74.90
2023-02-18T08:48:17.980Z,68.30
2023-02-18T08:50:36.998Z,69.25
2023-02-18T08:53:05.841Z,68.93
2023-02-18T08:55:35.529Z,63.88
2023-02-18T08:58:06.298Z,73.53
2023-02-18T09:00:35.396Z,62.53
2023-02-18T09:03:03.620Z,70.10
2023-02-18T09:05:32.087Z,66.93
2023-02-18T09:08:00.631Z,62.45
2023-02-18T09:10:29.159Z,80.05
2023-02-18T09:12:57.525Z,71.50
2023-02-18T09:15:25.871Z,59.75
2023-02-18T09:17:54.167Z,65.40
2023-02-18T09:20:22.725Z,66.95
2023-02-18T09:22:51.143Z,69.63
2023-02-18T09:25:19.478Z,73.70
2023-02-18T09:27:47.779Z,57.90
2023-02-18T09:30:16.396Z,67.53
2023-02-18T09:32:44.715Z,59.13
2023-02-18T09:35:12.812Z,61.15
2023-02-18T09:37:41.142Z,59.60
2023-02-18T09:40:15.575Z,54.25
2023-02-18T09:42:44.283Z,72.68
2023-02-18T09:45:14.184Z,64.07
2023-02-18T09:47:44.324Z,85.00
2023-02-18T09:50:25.694Z,88.85
2023-02-18T09:52:54.233Z,68.73
2023-02-18T09:55:28.197Z,69.30
2023-02-18T09:58:21.490Z,62.85
2023-02-18T10:00:52.793Z,83.57
2023-02-18T10:03:24.432Z,86.65
2023-02-18T10:06:04.704Z,95.90
2023-02-18T10:08:39.426Z,90.50
2023-02-18T10:11:24.384Z,85.00
2023-02-18T10:13:54.683Z,69.10
2023-02-18T10:16:25.416Z,102.20
2023-02-18T10:19:05.402Z,79.35
2023-02-18T10:21:35.784Z,66.82
2023-02-18T10:24:17.965Z,64.05
2023-02-18T10:29:18.795Z,102.03
2023-02-18T10:32:04.851Z,75.18
2023-02-18T10:35:00.291Z,88.45
2023-02-18T10:37:47.304Z,90.78
2023-02-18T10:41:00.019Z,82.40
2023-02-18T10:43:56.606Z,71.80
2023-02-18T10:46:51.975Z,67.95
2023-02-18T10:49:54.414Z,66.13
2023-02-18T10:52:24.234Z,59.88
2023-02-18T10:55:00.394Z,58.90
2023-02-18T10:57:29.232Z,63.88
2023-02-18T11:00:02.247Z,71.93
2023-02-18T11:02:33.750Z,71.43
2023-02-18T11:05:17.310Z,54.80
2023-02-18T11:07:50.778Z,72.72
2023-02-18T11:10:26.795Z,63.20
2023-02-18T11:13:17.161Z,64.18
2023-02-18T11:16:07.134Z,59.92
2023-02-18T11:18:45.853Z,60.08
2023-02-18T11:21:38.754Z,57.00
2023-02-18T11:24:16.128Z,74.45
2023-02-18T11:26:45.070Z,55.88
2023-02-18T11:29:16.002Z,57.70
2023-02-18T11:31:48.065Z,59.55
2023-02-18T11:34:23.305Z,53.50
2023-02-18T11:36:52.744Z,66.13
2023-02-18T11:39:29.054Z,63.05
2023-02-18T11:42:02.699Z,65.32
2023-02-18T11:44:38.812Z,65.47
2023-02-18T11:47:08.344Z,55.38
2023-02-18T11:49:36.757Z,71.28
2023-02-18T11:52:24.725Z,66.13
2023-02-18T11:55:22.616Z,66.80
2023-02-18T11:57:58.404Z,65.00
2023-02-18T12:00:36.820Z,65.22
2023-02-18T12:03:26.488Z,60.42
2023-02-18T12:05:56.001Z,92.90
2023-02-18T12:08:28.767Z,102.05
2023-02-18T12:11:13.493Z,84.97
2023-02-18T12:13:54.443Z,104.22
2023-02-18T12:17:05.883Z,129.35
2023-02-18T12:20:09.119Z,63.42
2023-02-18T12:22:51.823Z,65.75
2023-02-18T12:25:25.937Z,91.37
2023-02-18T12:28:20.120Z,60.95
2023-02-18T12:31:08.541Z,96.35
2023-02-18T12:33:46.361Z,68.30
2023-02-18T12:36:20.730Z,73.80
2023-02-18T12:39:07.107Z,67.22
2023-02-18T12:42:16.789Z,74.93
2023-02-18T12:45:04.552Z,99.13
2023-02-18T12:47:50.537Z,100.70
2023-02-18T12:50:44.022Z,74.78
2023-02-18T12:53:42.878Z,84.43
2023-02-18T12:56:55.608Z,96.70
2023-02-18T13:02:07.239Z,68.32
2023-02-18T13:04:47.460Z,96.93
2023-02-18T13:07:45.021Z,93.63
2023-02-18T13:10:35.202Z,80.30
2023-02-18T13:13:09.663Z,59.60
2023-02-18T13:15:45.067Z,54.88
2023-02-18T13:18:37.352Z,57.85
2023-02-18T13:21:09.955Z,88.43
2023-02-18T13:23:55.964Z,70.50
2023-02-18T13:26:26.572Z,70.13
2023-02-18T13:29:12.984Z,62.15
2023-02-18T13:32:07.160Z,61.20
2023-02-18T13:35:21.595Z,62.72
2023-02-18T13:38:19.005Z,67.38
2023-02-18T13:40:47.742Z,98.10
2023-02-18T13:43:28.515Z,57.33
2023-02-18T13:46:09.129Z,79.47
2023-02-18T13:48:49.869Z,52.08
2023-02-18T13:51:32.048Z,68.07
2023-02-18T13:54:05.813Z,54.33
2023-02-18T13:56:36.420Z,100.97
2023-02-18T13:59:32.821Z,84.93
2023-02-18T14:02:25.611Z,68.60
2023-02-18T14:04:56.703Z,56.88
2023-02-18T14:07:34.344Z,96.03
2023-02-18T14:10:18.242Z,94.00
2023-02-18T14:12:58.791Z,81.53
2023-02-18T14:15:27.107Z,88.03
2023-02-18T14:18:10.442Z,90.47
2023-02-18T14:20:38.804Z,76.00
2023-02-18T14:23:19.217Z,75.80
2023-02-18T14:26:15.084Z,133.73
2023-02-18T14:28:51.477Z,65.70
2023-02-18T14:31:47.056Z,91.65
2023-02-18T14:34:24.213Z,83.50
2023-02-18T14:37:04.600Z,103.97
2023-02-18T14:39:38.302Z,84.40
2023-02-18T14:42:25.153Z,66.85
2023-02-18T14:45:03.537Z,81.22
2023-02-18T14:47:37.966Z,84.32
2023-02-18T14:50:13.706Z,74.47
2023-02-18T14:52:41.949Z,113.22
2023-02-18T14:55:28.123Z,100.32
2023-02-18T14:58:27.640Z,101.07
2023-02-18T15:00:56.115Z,120.70
2023-02-18T15:03:27.287Z,89.20
2023-02-18T15:05:55.546Z,82.13
2023-02-18T15:08:25.727Z,77.90
2023-02-18T15:11:21.416Z,99.65
2023-02-18T15:13:50.385Z,88.40
2023-02-18T15:16:32.212Z,70.28
2023-02-18T15:21:39.822Z,72.57
2023-02-18T15:24:32.825Z,87.68
2023-02-18T15:27:04.641Z,75.05
2023-02-18T15:29:39.756Z,76.30
2023-02-18T15:32:26.926Z,67.53
2023-02-18T15:35:00.817Z,87.32
2023-02-18T15:37:30.356Z,78.22
2023-02-18T15:39:58.869Z,71.35
2023-02-18T15:42:34.782Z,82.88
2023-02-18T15:45:05.915Z,88.60
2023-02-18T15:47:34.383Z,92.22
2023-02-18T15:50:04.233Z,78.93
2023-02-18T15:52:38.883Z,86.93
2023-02-18T15:55:34.792Z,91.68
2023-02-18T15:58:08.162Z,70.82
2023-02-18T16:00:43.157Z,78.82
2023-02-18T16:03:24.356Z,75.22
2023-02-18T16:06:20.768Z,91.27
2023-02-18T16:09:03.635Z,83.90
2023-02-18T16:11:35.950Z,90.43
2023-02-18T16:14:04.433Z,77.40
2023-02-18T16:16:37.965Z,92.72
2023-02-18T16:19:06.583Z,74.07
2023-02-18T16:21:40.534Z,67.40
2023-02-18T16:24:29.886Z,74.65
2023-02-18T16:26:59.650Z,91.38
2023-02-18T16:29:37.115Z,84.78
2023-02-18T16:32:05.621Z,80.30
2023-02-18T16:34:34.041Z,82.50
2023-02-18T16:37:04.909Z,91.18
2023-02-18T16:39:36.079Z,102.60
2023-02-18T16:42:06.405Z,80.70
2023-02-18T16:44:35.136Z,88.50
2023-02-18T16:47:04.152Z,69.05
2023-02-18T16:49:33.503Z,93.68
2023-02-18T16:52:06.742Z,76.70
2023-02-18T16:54:39.148Z,98.75
2023-02-18T16:57:07.721Z,79.90
2023-02-18T16:59:36.004Z,82.30
2023-02-18T17:02:04.789Z,80.63
2023-02-18T17:04:33.169Z,103.47
2023-02-18T17:07:01.656Z,103.80
2023-02-18T17:09:32.895Z,76.15
2023-02-18T17:12:01.392Z,66.25
2023-02-18T17:14:29.866Z,70.10
2023-02-18T17:16:58.758Z,102.32
2023-02-18T17:19:27.106Z,71.93
2023-02-18T17:21:55.726Z,81.43
2023-02-18T17:24:24.376Z,90.50
2023-02-18T17:26:52.655Z,70.13
2023-02-18T17:29:26.633Z,100.45
2023-02-18T17:31:56.908Z,84.85
2023-02-18T17:34:30.692Z,93.53
2023-02-18T17:36:59.427Z,79.38
2023-02-18T17:39:28.813Z,95.25
2023-02-18T17:41:57.202Z,84.57
2023-02-18T17:44:25.650Z,70.13
2023-02-18T17:46:54.092Z,78.55
2023-02-18T17:49:22.458Z,79.75
2023-02-18T17:51:50.870Z,82.72
2023-02-18T17:54:20.827Z,93.82
2023-02-18T17:56:49.156Z,89.75
2023-02-18T17:59:17.565Z,89.43
2023-02-18T18:01:45.950Z,101.75
2023-02-18T18:04:16.488Z,148.52
2023-02-18T18:06:45.180Z,108.15
2023-02-18T18:09:13.537Z,115.30
2023-02-18T18:11:41.959Z,77.13
2023-02-18T18:14:13.957Z,114.90
2023-02-18T18:19:10.158Z,77.63
2023-02-18T18:21:38.769Z,94.78
2023-02-18T18:24:07.402Z,98.78
2023-02-18T18:26:35.709Z,107.40
2023-02-18T18:29:03.994Z,113.03
2023-02-18T18:31:32.577Z,121.20
2023-02-18T18:34:01.941Z,115.93
2023-02-18T18:36:30.220Z,130.52
2023-02-18T18:38:58.762Z,87.88
2023-02-18T18:41:29.090Z,89.90
2023-02-18T18:43:57.313Z,138.13
2023-02-18T18:46:25.618Z,104.72
2023-02-18T18:48:54.472Z,146.68
2023-02-18T18:51:28.983Z,127.82
2023-02-18T18:53:57.524Z,113.35
2023-02-18T18:56:25.927Z,161.10
2023-02-18T18:58:54.666Z,134.35
2023-02-18T19:01:23.432Z,123.03
2023-02-18T19:03:51.676Z,106.18
2023-02-18T19:06:19.889Z,91.47
2023-02-18T19:08:48.510Z,94.32
2023-02-18T19:11:17.833Z,129.63
2023-02-18T19:13:46.122Z,172.32
2023-02-18T19:16:39.738Z,147.55
2023-02-18T19:19:09.117Z,138.88
2023-02-18T19:21:37.477Z,147.98
2023-02-18T19:24:06.259Z,135.82
2023-02-18T19:26:34.442Z,111.40
2023-02-18T19:29:06.236Z,110.28
2023-02-18T19:31:35.325Z,160.30
2023-02-18T19:34:03.895Z,139.98
2023-02-18T19:36:32.184Z,154.52
2023-02-18T19:39:00.324Z,128.05
2023-02-18T19:41:28.812Z,162.63
2023-02-18T19:43:57.206Z,164.70
2023-02-18T19:46:25.415Z,149.20
2023-02-18T19:48:53.746Z,165.30
2023-02-18T19:51:22.088Z,189.95
2023-02-18T19:53:50.303Z,154.25
2023-02-18T19:56:18.525Z,166.32
2023-02-18T19:58:46.849Z,173.63
2023-02-18T20:01:19.059Z,134.88
2023-02-18T20:03:47.490Z,176.90
2023-02-18T20:06:20.918Z,161.57
2023-02-18T20:08:49.362Z,159.55
2023-02-18T20:11:17.935Z,144.25
2023-02-18T20:13:48.592Z,183.35
2023-02-18T20:16:16.927Z,122.65
2023-02-18T20:18:45.240Z,146.00
2023-02-18T20:21:14.123Z,151.45
2023-02-18T20:23:45.681Z,162.82
2023-02-18T20:26:14.418Z,136.95
2023-02-18T20:28:42.847Z,146.50
2023-02-18T20:31:13.683Z,216.98
2023-02-18T20:33:46.477Z,200.88
2023-02-18T20:36:15.195Z,189.80
2023-02-18T20:38:43.729Z,225.85
2023-02-18T20:41:14.928Z,217.48
2023-02-18T20:43:43.378Z,195.03
2023-02-18T20:46:21.789Z,155.50
2023-02-18T20:48:50.205Z,118.70
2023-02-18T20:51:22.467Z,111.38
2023-02-18T20:53:51.990Z,118.70
2023-02-18T20:56:21.661Z,149.45
2023-02-18T20:58:49.976Z,115.75
2023-02-18T21:01:19.689Z,121.70
2023-02-18T21:03:49.152Z,131.20
2023-02-18T21:06:19.913Z,133.10
2023-02-18T21:08:50.165Z,143.05
2023-02-18T21:11:21.241Z,117.13
2023-02-18T21:13:51.330Z,132.30
2023-02-18T21:16:24.808Z,140.38
2023-02-18T21:18:53.700Z,148.48
2023-02-18T21:21:22.809Z,126.07
2023-02-18T21:23:51.728Z,114.05
2023-02-18T21:26:24.142Z,121.88
2023-02-18T21:28:55.036Z,117.25
2023-02-18T21:31:27.078Z,98.00
2023-02-18T21:36:24.336Z,112.32
2023-02-18T21:38:58.269Z,122.57
2023-02-18T21:41:27.634Z,139.32
2023-02-18T21:43:56.409Z,124.20
2023-02-18T21:46:27.278Z,131.55
2023-02-18T21:48:56.277Z,157.13
2023-02-18T21:51:24.548Z,140.90
2023-02-18T21:53:52.857Z,114.28
2023-02-18T21:56:21.139Z,113.82
2023-02-18T21:58:49.413Z,122.03
2023-02-18T22:01:17.894Z,136.95
2023-02-18T22:03:46.059Z,129.25
2023-02-18T22:06:14.509Z,148.00
2023-02-18T22:08:42.661Z,140.98
2023-02-18T22:11:11.075Z,130.15
2023-02-18T22:13:39.570Z,123.68
2023-02-18T22:16:08.093Z,138.43
2023-02-18T22:18:36.601Z,118.88
2023-02-18T22:21:11.136Z,151.57
2023-02-18T22:23:39.904Z,108.95
2023-02-18T22:26:10.591Z,124.30
2023-02-18T22:28:38.771Z,139.02
2023-02-18T22:31:09.342Z,147.27
2023-02-18T22:33:38.204Z,154.60
2023-02-18T22:36:07.890Z,161.43
2023-02-18T22:38:37.899Z,164.52
2023-02-18T22:41:08.779Z,194.23
2023-02-18T22:43:37.605Z,190.60
2023-02-18T22:46:10.950Z,215.32
2023-02-18T22:48:40.356Z,208.73
2023-02-18T22:51:13.206Z,237.18
2023-02-18T22:53:42.354Z,236.52
2023-02-18T22:56:19.309Z,244.57
2023-02-18T22:58:50.124Z,214.40
2023-02-18T23:01:20.711Z,217.50
2023-02-18T23:04:16.554Z,240.60
2023-02-18T23:06:46.704Z,264.20
2023-02-18T23:09:18.508Z,212.07
2023-02-18T23:11:49.941Z,177.30
2023-02-18T23:14:18.395Z,202.27
2023-02-18T23:16:58.980Z,210.20
2023-02-18T23:19:29.371Z,182.10
2023-02-18T23:21:57.733Z,182.98
2023-02-18T23:24:25.979Z,165.73
2023-02-18T23:26:54.203Z,160.82
2023-02-18T23:29:22.550Z,156.38
2023-02-18T23:31:50.895Z,188.10
2023-02-18T23:34:19.305Z,180.25
2023-02-18T23:36:47.551Z,190.05
2023-02-18T23:39:22.214Z,201.07
2023-02-18T23:41:51.844Z,189.15
2023-02-18T23:44:22.963Z,198.85
2023-02-18T23:46:52.505Z,190.27
2023-02-18T23:49:23.812Z,196.88
2023-02-18T23:51:54.644Z,231.07
2023-02-18T23:54:23.831Z,224.07
2023-02-18T23:56:52.151Z,199.40
2023-02-18T23:59:20.695Z,184.43
